Terminal Aerodrome Forecast
Issued by NWS

Home | Current Version | Previous Version | Text Only | Print | Product List | Glossary On
Versions: 1 2 3 4 5 6 7 8 9 10 11 12 13 14 15 16 17 18 19
470
FTAK31 PAJN 251127
TAFAJN
TAF
PAJN 251127Z 2512/2612 08008KT P6SM VCSH FEW005 OVC025
      TEMPO 2512/2516 4SM -SHRA BR BKN005 OVC025
     FM251800 10008KT P6SM BKN035
     FM260700 13005KT P6SM -RA BKN015 OVC025=

USA.gov is the U.S. government's official web portal to all federal, state and local government web resources and services.